sensor_id;sensor_type;location;lat;lon;timestamp;P1;durP1;ratioP1;P2;durP2;ratioP2
67503;SDS011;54351;49.108;1.502;2022-11-25T00:02:09;623.40;;;578.13;;
67503;SDS011;54351;49.108;1.502;2022-11-25T00:04:35;624.90;;;578.22;;
67503;SDS011;54351;49.108;1.502;2022-11-25T00:07:03;624.60;;;578.22;;
67503;SDS011;54351;49.108;1.502;2022-11-25T00:09:29;645.70;;;598.15;;
67503;SDS011;54351;49.108;1.502;2022-11-25T00:11:55;645.67;;;598.38;;
67503;SDS011;54351;49.108;1.502;2022-11-25T00:14:21;605.53;;;561.05;;
67503;SDS011;54351;49.108;1.502;2022-11-25T00:16:47;599.45;;;555.92;;
67503;SDS011;54351;49.108;1.502;2022-11-25T00:19:13;599.45;;;554.63;;
67503;SDS011;54351;49.108;1.502;2022-11-25T00:21:39;583.85;;;540.67;;
67503;SDS011;54351;49.108;1.502;2022-11-25T00:24:05;533.53;;;494.13;;
67503;SDS011;54351;49.108;1.502;2022-11-25T00:26:32;520.90;;;482.23;;
67503;SDS011;54351;49.108;1.502;2022-11-25T00:29:00;525.63;;;487.45;;
67503;SDS011;54351;49.108;1.502;2022-11-25T00:31:28;582.17;;;538.33;;
67503;SDS011;54351;49.108;1.502;2022-11-25T00:33:54;576.50;;;535.03;;
67503;SDS011;54351;49.108;1.502;2022-11-25T00:36:24;528.60;;;490.05;;
67503;SDS011;54351;49.108;1.502;2022-11-25T00:38:54;589.30;;;546.38;;
67503;SDS011;54351;49.108;1.502;2022-11-25T00:41:21;501.73;;;465.77;;
67503;SDS011;54351;49.108;1.502;2022-11-25T00:44:10;534.92;;;496.23;;
67503;SDS011;54351;49.108;1.502;2022-11-25T00:46:55;513.65;;;476.58;;
67503;SDS011;54351;49.108;1.502;2022-11-25T00:49:21;499.00;;;462.33;;
67503;SDS011;54351;49.108;1.502;2022-11-25T00:51:47;517.17;;;479.58;;
67503;SDS011;54351;49.108;1.502;2022-11-25T00:54:14;485.08;;;450.17;;
67503;SDS011;54351;49.108;1.502;2022-11-25T00:56:40;493.10;;;458.08;;
67503;SDS011;54351;49.108;1.502;2022-11-25T00:59:06;430.58;;;400.30;;
67503;SDS011;54351;49.108;1.502;2022-11-25T01:01:32;489.25;;;453.83;;
67503;SDS011;54351;49.108;1.502;2022-11-25T01:03:59;318.42;;;296.25;;
67503;SDS011;54351;49.108;1.502;2022-11-25T01:06:25;417.75;;;388.65;;
67503;SDS011;54351;49.108;1.502;2022-11-25T01:08:51;415.70;;;386.02;;
67503;SDS011;54351;49.108;1.502;2022-11-25T01:11:20;364.95;;;338.58;;
67503;SDS011;54351;49.108;1.502;2022-11-25T01:13:46;367.17;;;341.08;;
67503;SDS011;54351;49.108;1.502;2022-11-25T01:16:14;367.48;;;340.38;;
67503;SDS011;54351;49.108;1.502;2022-11-25T01:18:40;403.40;;;373.85;;
67503;SDS011;54351;49.108;1.502;2022-11-25T01:23:36;214.63;;;197.40;;
67503;SDS011;54351;49.108;1.502;2022-11-25T01:26:03;355.75;;;331.23;;
67503;SDS011;54351;49.108;1.502;2022-11-25T01:28:29;348.42;;;323.75;;
67503;SDS011;54351;49.108;1.502;2022-11-25T01:31:02;475.35;;;440.95;;
67503;SDS011;54351;49.108;1.502;2022-11-25T01:33:29;479.05;;;442.85;;
67503;SDS011;54351;49.108;1.502;2022-11-25T01:35:59;454.40;;;419.13;;
67503;SDS011;54351;49.108;1.502;2022-11-25T01:38:26;413.20;;;383.00;;
67503;SDS011;54351;49.108;1.502;2022-11-25T01:40:52;450.17;;;415.77;;
67503;SDS011;54351;49.108;1.502;2022-11-25T01:43:18;407.38;;;376.13;;
67503;SDS011;54351;49.108;1.502;2022-11-25T01:45:44;411.70;;;379.70;;
67503;SDS011;54351;49.108;1.502;2022-11-25T01:50:55;403.10;;;372.92;;
67503;SDS011;54351;49.108;1.502;2022-11-25T01:53:21;314.83;;;291.83;;
67503;SDS011;54351;49.108;1.502;2022-11-25T01:55:50;283.63;;;261.08;;
67503;SDS011;54351;49.108;1.502;2022-11-25T01:58:24;438.65;;;403.27;;
67503;SDS011;54351;49.108;1.502;2022-11-25T02:03:20;551.65;;;507.05;;
67503;SDS011;54351;49.108;1.502;2022-11-25T02:08:14;542.20;;;499.85;;
67503;SDS011;54351;49.108;1.502;2022-11-25T02:10:40;521.10;;;479.45;;
67503;SDS011;54351;49.108;1.502;2022-11-25T02:13:08;461.42;;;425.05;;
67503;SDS011;54351;49.108;1.502;2022-11-25T02:15:34;482.50;;;444.38;;
67503;SDS011;54351;49.108;1.502;2022-11-25T02:18:01;473.15;;;437.90;;
67503;SDS011;54351;49.108;1.502;2022-11-25T02:20:27;433.77;;;400.02;;
67503;SDS011;54351;49.108;1.502;2022-11-25T02:23:02;397.15;;;366.88;;
67503;SDS011;54351;49.108;1.502;2022-11-25T02:25:31;315.98;;;291.75;;
67503;SDS011;54351;49.108;1.502;2022-11-25T02:28:00;352.65;;;324.73;;
67503;SDS011;54351;49.108;1.502;2022-11-25T02:30:26;344.75;;;318.10;;
67503;SDS011;54351;49.108;1.502;2022-11-25T02:32:52;421.40;;;388.27;;
67503;SDS011;54351;49.108;1.502;2022-11-25T02:35:29;381.40;;;350.23;;
67503;SDS011;54351;49.108;1.502;2022-11-25T02:37:57;287.25;;;264.23;;
67503;SDS011;54351;49.108;1.502;2022-11-25T02:40:24;251.75;;;232.43;;
67503;SDS011;54351;49.108;1.502;2022-11-25T02:42:51;211.45;;;194.77;;
67503;SDS011;54351;49.108;1.502;2022-11-25T02:45:17;222.57;;;204.43;;
67503;SDS011;54351;49.108;1.502;2022-11-25T02:47:45;248.38;;;227.80;;
67503;SDS011;54351;49.108;1.502;2022-11-25T02:50:11;160.32;;;148.85;;
67503;SDS011;54351;49.108;1.502;2022-11-25T02:52:38;202.00;;;188.85;;
67503;SDS011;54351;49.108;1.502;2022-11-25T02:55:04;151.75;;;140.93;;
67503;SDS011;54351;49.108;1.502;2022-11-25T02:57:31;215.80;;;199.32;;
67503;SDS011;54351;49.108;1.502;2022-11-25T02:59:57;177.45;;;163.75;;
67503;SDS011;54351;49.108;1.502;2022-11-25T03:02:23;287.67;;;264.95;;
67503;SDS011;54351;49.108;1.502;2022-11-25T03:04:49;212.75;;;197.02;;
67503;SDS011;54351;49.108;1.502;2022-11-25T03:07:15;220.18;;;205.38;;
67503;SDS011;54351;49.108;1.502;2022-11-25T03:09:41;193.07;;;180.20;;
67503;SDS011;54351;49.108;1.502;2022-11-25T03:12:07;307.67;;;288.13;;
67503;SDS011;54351;49.108;1.502;2022-11-25T03:14:46;150.52;;;139.73;;
67503;SDS011;54351;49.108;1.502;2022-11-25T03:17:12;225.77;;;209.57;;
67503;SDS011;54351;49.108;1.502;2022-11-25T03:19:38;129.25;;;119.85;;
67503;SDS011;54351;49.108;1.502;2022-11-25T03:22:05;195.02;;;181.30;;
67503;SDS011;54351;49.108;1.502;2022-11-25T03:24:31;159.65;;;148.23;;
67503;SDS011;54351;49.108;1.502;2022-11-25T03:26:57;233.18;;;217.88;;
67503;SDS011;54351;49.108;1.502;2022-11-25T03:29:24;313.98;;;292.73;;
67503;SDS011;54351;49.108;1.502;2022-11-25T03:31:50;155.90;;;144.30;;
67503;SDS011;54351;49.108;1.502;2022-11-25T03:34:16;208.40;;;192.27;;
67503;SDS011;54351;49.108;1.502;2022-11-25T03:36:42;201.80;;;187.60;;
67503;SDS011;54351;49.108;1.502;2022-11-25T03:39:08;191.85;;;178.40;;
67503;SDS011;54351;49.108;1.502;2022-11-25T03:41:34;140.70;;;129.45;;
67503;SDS011;54351;49.108;1.502;2022-11-25T03:44:00;286.17;;;263.92;;
67503;SDS011;54351;49.108;1.502;2022-11-25T03:46:26;320.50;;;295.02;;
67503;SDS011;54351;49.108;1.502;2022-11-25T03:48:52;364.00;;;335.98;;
67503;SDS011;54351;49.108;1.502;2022-11-25T03:51:19;549.65;;;505.25;;
67503;SDS011;54351;49.108;1.502;2022-11-25T03:53:45;477.20;;;437.63;;
67503;SDS011;54351;49.108;1.502;2022-11-25T03:56:11;457.45;;;418.90;;
67503;SDS011;54351;49.108;1.502;2022-11-25T03:58:38;452.50;;;416.42;;
67503;SDS011;54351;49.108;1.502;2022-11-25T04:01:04;478.25;;;439.70;;
67503;SDS011;54351;49.108;1.502;2022-11-25T04:03:30;459.20;;;420.95;;
67503;SDS011;54351;49.108;1.502;2022-11-25T04:05:56;582.88;;;535.10;;
67503;SDS011;54351;49.108;1.502;2022-11-25T04:08:22;551.10;;;507.73;;
67503;SDS011;54351;49.108;1.502;2022-11-25T04:10:49;536.45;;;493.50;;
67503;SDS011;54351;49.108;1.502;2022-11-25T04:13:16;535.45;;;492.85;;
67503;SDS011;54351;49.108;1.502;2022-11-25T04:15:45;436.25;;;401.45;;
67503;SDS011;54351;49.108;1.502;2022-11-25T04:18:13;569.95;;;524.03;;
67503;SDS011;54351;49.108;1.502;2022-11-25T04:20:42;558.85;;;513.35;;
67503;SDS011;54351;49.108;1.502;2022-11-25T04:23:09;515.97;;;473.58;;
67503;SDS011;54351;49.108;1.502;2022-11-25T04:25:35;565.42;;;521.20;;
67503;SDS011;54351;49.108;1.502;2022-11-25T04:28:02;554.28;;;510.02;;
67503;SDS011;54351;49.108;1.502;2022-11-25T04:30:28;493.38;;;454.35;;
67503;SDS011;54351;49.108;1.502;2022-11-25T04:32:54;494.25;;;453.55;;
67503;SDS011;54351;49.108;1.502;2022-11-25T04:35:20;523.83;;;479.73;;
67503;SDS011;54351;49.108;1.502;2022-11-25T04:37:46;451.75;;;415.85;;
67503;SDS011;54351;49.108;1.502;2022-11-25T04:40:13;420.73;;;385.88;;
67503;SDS011;54351;49.108;1.502;2022-11-25T04:42:39;431.02;;;396.85;;
67503;SDS011;54351;49.108;1.502;2022-11-25T04:45:06;479.33;;;440.40;;
67503;SDS011;54351;49.108;1.502;2022-11-25T04:47:33;550.25;;;506.40;;
67503;SDS011;54351;49.108;1.502;2022-11-25T04:49:59;585.33;;;538.38;;
67503;SDS011;54351;49.108;1.502;2022-11-25T04:52:25;514.45;;;473.00;;
67503;SDS011;54351;49.108;1.502;2022-11-25T04:54:52;461.13;;;423.63;;
67503;SDS011;54351;49.108;1.502;2022-11-25T04:57:18;475.02;;;436.23;;
67503;SDS011;54351;49.108;1.502;2022-11-25T04:59:44;543.40;;;499.92;;
67503;SDS011;54351;49.108;1.502;2022-11-25T05:02:21;501.63;;;460.98;;
67503;SDS011;54351;49.108;1.502;2022-11-25T05:04:48;571.55;;;526.70;;
67503;SDS011;54351;49.108;1.502;2022-11-25T05:07:15;515.47;;;474.17;;
67503;SDS011;54351;49.108;1.502;2022-11-25T05:09:41;482.33;;;443.98;;
67503;SDS011;54351;49.108;1.502;2022-11-25T05:12:09;500.33;;;460.40;;
67503;SDS011;54351;49.108;1.502;2022-11-25T05:14:35;497.00;;;456.52;;
67503;SDS011;54351;49.108;1.502;2022-11-25T05:17:02;511.70;;;469.88;;
67503;SDS011;54351;49.108;1.502;2022-11-25T05:19:31;532.45;;;489.17;;
67503;SDS011;54351;49.108;1.502;2022-11-25T05:21:57;538.33;;;494.45;;
67503;SDS011;54351;49.108;1.502;2022-11-25T05:24:25;515.92;;;474.27;;
67503;SDS011;54351;49.108;1.502;2022-11-25T05:26:59;312.50;;;287.98;;
67503;SDS011;54351;49.108;1.502;2022-11-25T05:29:30;277.27;;;256.08;;
67503;SDS011;54351;49.108;1.502;2022-11-25T05:31:58;249.90;;;232.48;;
67503;SDS011;54351;49.108;1.502;2022-11-25T05:34:29;162.75;;;151.52;;
67503;SDS011;54351;49.108;1.502;2022-11-25T05:36:55;195.75;;;180.50;;
67503;SDS011;54351;49.108;1.502;2022-11-25T05:39:21;202.90;;;186.65;;
67503;SDS011;54351;49.108;1.502;2022-11-25T07:35:17;352.63;;;327.17;;
67503;SDS011;54351;49.108;1.502;2022-11-25T07:50:09;251.38;;;234.60;;
67503;SDS011;54351;49.108;1.502;2022-11-25T07:55:50;258.92;;;241.65;;
67503;SDS011;54351;49.108;1.502;2022-11-25T08:10:30;295.50;;;274.98;;
67503;SDS011;54351;49.108;1.502;2022-11-25T08:13:05;290.90;;;271.05;;
67503;SDS011;54351;49.108;1.502;2022-11-25T08:19:04;280.48;;;261.02;;
67503;SDS011;54351;49.108;1.502;2022-11-25T08:45:58;275.17;;;255.98;;
67503;SDS011;54351;49.108;1.502;2022-11-25T08:48:24;260.77;;;242.30;;
67503;SDS011;54351;49.108;1.502;2022-11-25T08:50:51;277.42;;;256.88;;
67503;SDS011;54351;49.108;1.502;2022-11-25T08:53:21;292.30;;;271.02;;
67503;SDS011;54351;49.108;1.502;2022-11-25T08:55:52;347.42;;;321.75;;
67503;SDS011;54351;49.108;1.502;2022-11-25T08:58:22;390.33;;;360.65;;
67503;SDS011;54351;49.108;1.502;2022-11-25T09:01:08;347.65;;;321.17;;
67503;SDS011;54351;49.108;1.502;2022-11-25T09:13:03;472.30;;;435.33;;
67503;SDS011;54351;49.108;1.502;2022-11-25T09:15:30;465.33;;;429.10;;
67503;SDS011;54351;49.108;1.502;2022-11-25T09:17:59;441.55;;;408.08;;
67503;SDS011;54351;49.108;1.502;2022-11-25T09:20:26;543.67;;;501.80;;
67503;SDS011;54351;49.108;1.502;2022-11-25T09:22:52;503.02;;;464.98;;
67503;SDS011;54351;49.108;1.502;2022-11-25T09:25:19;553.13;;;510.23;;
67503;SDS011;54351;49.108;1.502;2022-11-25T09:27:45;534.17;;;492.83;;
67503;SDS011;54351;49.108;1.502;2022-11-25T09:30:11;500.05;;;462.20;;
67503;SDS011;54351;49.108;1.502;2022-11-25T09:32:38;543.63;;;502.95;;
67503;SDS011;54351;49.108;1.502;2022-11-25T09:35:04;494.00;;;455.42;;
67503;SDS011;54351;49.108;1.502;2022-11-25T09:37:30;498.42;;;461.15;;
67503;SDS011;54351;49.108;1.502;2022-11-25T09:39:56;502.33;;;464.70;;
67503;SDS011;54351;49.108;1.502;2022-11-25T09:45:24;543.42;;;502.30;;
67503;SDS011;54351;49.108;1.502;2022-11-25T09:50:54;515.88;;;477.65;;
67503;SDS011;54351;49.108;1.502;2022-11-25T09:56:11;487.02;;;449.77;;
67503;SDS011;54351;49.108;1.502;2022-11-25T09:58:41;513.78;;;474.95;;
67503;SDS011;54351;49.108;1.502;2022-11-25T10:01:20;506.63;;;468.98;;
67503;SDS011;54351;49.108;1.502;2022-11-25T10:03:55;500.05;;;462.77;;
67503;SDS011;54351;49.108;1.502;2022-11-25T10:06:26;502.65;;;464.83;;
67503;SDS011;54351;49.108;1.502;2022-11-25T10:09:00;495.10;;;457.60;;
67503;SDS011;54351;49.108;1.502;2022-11-25T10:16:51;512.00;;;473.90;;
67503;SDS011;54351;49.108;1.502;2022-11-25T10:21:45;540.60;;;499.35;;
67503;SDS011;54351;49.108;1.502;2022-11-25T10:24:12;509.98;;;471.88;;
67503;SDS011;54351;49.108;1.502;2022-11-25T10:26:40;488.52;;;450.90;;
67503;SDS011;54351;49.108;1.502;2022-11-25T10:31:38;495.25;;;457.67;;
67503;SDS011;54351;49.108;1.502;2022-11-25T10:34:52;484.80;;;448.15;;
67503;SDS011;54351;49.108;1.502;2022-11-25T10:36:52;501.38;;;463.90;;
67503;SDS011;54351;49.108;1.502;2022-11-25T10:39:20;480.23;;;444.35;;
67503;SDS011;54351;49.108;1.502;2022-11-25T10:44:37;525.20;;;484.75;;
67503;SDS011;54351;49.108;1.502;2022-11-25T10:53:35;505.02;;;467.05;;
67503;SDS011;54351;49.108;1.502;2022-11-25T11:09:03;626.00;;;576.90;;
67503;SDS011;54351;49.108;1.502;2022-11-25T11:45:52;187.25;;;174.60;;
67503;SDS011;54351;49.108;1.502;2022-11-25T12:12:44;177.30;;;164.63;;
67503;SDS011;54351;49.108;1.502;2022-11-25T12:15:18;226.68;;;208.55;;
67503;SDS011;54351;49.108;1.502;2022-11-25T12:17:47;187.00;;;172.70;;
67503;SDS011;54351;49.108;1.502;2022-11-25T12:20:27;106.47;;;97.22;;
67503;SDS011;54351;49.108;1.502;2022-11-25T12:26:02;138.65;;;127.05;;
67503;SDS011;54351;49.108;1.502;2022-11-25T12:28:37;217.95;;;200.18;;
67503;SDS011;54351;49.108;1.502;2022-11-25T12:36:17;261.75;;;240.43;;
67503;SDS011;54351;49.108;1.502;2022-11-25T12:46:44;319.23;;;296.58;;
67503;SDS011;54351;49.108;1.502;2022-11-25T13:17:47;147.13;;;135.88;;
67503;SDS011;54351;49.108;1.502;2022-11-25T13:23:05;281.15;;;261.80;;
67503;SDS011;54351;49.108;1.502;2022-11-25T13:25:32;202.13;;;187.50;;
67503;SDS011;54351;49.108;1.502;2022-11-25T13:27:59;118.55;;;109.38;;
67503;SDS011;54351;49.108;1.502;2022-11-25T13:35:39;251.80;;;231.88;;
67503;SDS011;54351;49.108;1.502;2022-11-25T13:41:40;300.80;;;279.73;;
67503;SDS011;54351;49.108;1.502;2022-11-25T13:43:55;292.27;;;271.50;;
67503;SDS011;54351;49.108;1.502;2022-11-25T13:48:57;324.17;;;299.50;;
67503;SDS011;54351;49.108;1.502;2022-11-25T13:51:23;311.77;;;288.73;;
67503;SDS011;54351;49.108;1.502;2022-11-25T13:53:54;359.27;;;332.60;;
67503;SDS011;54351;49.108;1.502;2022-11-25T13:56:26;494.42;;;457.33;;
67503;SDS011;54351;49.108;1.502;2022-11-25T14:04:11;330.77;;;308.85;;
67503;SDS011;54351;49.108;1.502;2022-11-25T14:09:12;362.83;;;336.23;;
67503;SDS011;54351;49.108;1.502;2022-11-25T14:14:49;231.40;;;215.02;;
67503;SDS011;54351;49.108;1.502;2022-11-25T14:17:22;238.23;;;219.88;;
67503;SDS011;54351;49.108;1.502;2022-11-25T14:27:34;239.48;;;223.13;;
67503;SDS011;54351;49.108;1.502;2022-11-25T14:30:04;275.23;;;255.98;;
67503;SDS011;54351;49.108;1.502;2022-11-25T14:32:39;271.98;;;253.50;;
67503;SDS011;54351;49.108;1.502;2022-11-25T14:35:09;291.45;;;272.15;;
67503;SDS011;54351;49.108;1.502;2022-11-25T14:37:38;349.23;;;325.85;;
67503;SDS011;54351;49.108;1.502;2022-11-25T14:40:07;274.77;;;256.85;;
67503;SDS011;54351;49.108;1.502;2022-11-25T14:42:37;296.60;;;277.80;;
67503;SDS011;54351;49.108;1.502;2022-11-25T14:45:18;295.50;;;275.73;;
67503;SDS011;54351;49.108;1.502;2022-11-25T14:47:45;315.42;;;295.08;;
67503;SDS011;54351;49.108;1.502;2022-11-25T14:50:14;302.27;;;282.50;;
67503;SDS011;54351;49.108;1.502;2022-11-25T14:52:40;334.00;;;311.52;;
67503;SDS011;54351;49.108;1.502;2022-11-25T14:55:08;312.67;;;292.65;;
67503;SDS011;54351;49.108;1.502;2022-11-25T14:57:36;345.25;;;323.10;;
67503;SDS011;54351;49.108;1.502;2022-11-25T15:00:13;355.88;;;332.10;;
67503;SDS011;54351;49.108;1.502;2022-11-25T15:02:41;324.38;;;303.23;;
67503;SDS011;54351;49.108;1.502;2022-11-25T15:07:33;286.10;;;267.13;;
67503;SDS011;54351;49.108;1.502;2022-11-25T15:09:59;270.05;;;251.68;;
67503;SDS011;54351;49.108;1.502;2022-11-25T15:12:34;249.30;;;232.13;;
67503;SDS011;54351;49.108;1.502;2022-11-25T15:15:02;295.63;;;273.73;;
67503;SDS011;54351;49.108;1.502;2022-11-25T15:17:32;285.55;;;265.10;;
67503;SDS011;54351;49.108;1.502;2022-11-25T15:20:14;414.38;;;383.67;;
67503;SDS011;54351;49.108;1.502;2022-11-25T15:22:48;333.70;;;312.25;;
67503;SDS011;54351;49.108;1.502;2022-11-25T15:25:17;270.50;;;252.00;;
67503;SDS011;54351;49.108;1.502;2022-11-25T15:27:50;412.67;;;383.85;;
67503;SDS011;54351;49.108;1.502;2022-11-25T15:30:20;330.75;;;307.40;;
67503;SDS011;54351;49.108;1.502;2022-11-25T15:32:47;364.20;;;341.42;;
67503;SDS011;54351;49.108;1.502;2022-11-25T15:35:15;315.70;;;295.20;;
67503;SDS011;54351;49.108;1.502;2022-11-25T15:37:41;419.48;;;393.20;;
67503;SDS011;54351;49.108;1.502;2022-11-25T18:44:28;271.20;;;254.70;;
67503;SDS011;54351;49.108;1.502;2022-11-25T18:53:42;265.95;;;250.15;;
67503;SDS011;54351;49.108;1.502;2022-11-25T19:02:26;240.60;;;225.88;;
67503;SDS011;54351;49.108;1.502;2022-11-25T19:08:03;227.23;;;214.18;;
67503;SDS011;54351;49.108;1.502;2022-11-25T19:10:35;204.30;;;192.60;;
67503;SDS011;54351;49.108;1.502;2022-11-25T19:13:02;167.40;;;156.98;;
67503;SDS011;54351;49.108;1.502;2022-11-25T19:15:30;149.55;;;138.52;;
67503;SDS011;54351;49.108;1.502;2022-11-25T19:18:01;177.68;;;166.45;;
67503;SDS011;54351;49.108;1.502;2022-11-25T19:20:28;119.80;;;112.10;;
67503;SDS011;54351;49.108;1.502;2022-11-25T19:22:55;87.07;;;81.05;;
67503;SDS011;54351;49.108;1.502;2022-11-25T19:25:21;133.52;;;125.78;;
67503;SDS011;54351;49.108;1.502;2022-11-25T19:27:51;151.32;;;142.00;;
67503;SDS011;54351;49.108;1.502;2022-11-25T19:30:19;163.73;;;153.50;;
67503;SDS011;54351;49.108;1.502;2022-11-25T19:39:07;187.18;;;173.90;;
67503;SDS011;54351;49.108;1.502;2022-11-25T19:41:34;329.33;;;304.83;;
67503;SDS011;54351;49.108;1.502;2022-11-25T19:44:00;481.30;;;445.67;;
67503;SDS011;54351;49.108;1.502;2022-11-25T19:46:28;351.17;;;324.77;;
67503;SDS011;54351;49.108;1.502;2022-11-25T19:48:56;396.50;;;366.73;;
67503;SDS011;54351;49.108;1.502;2022-11-25T19:51:23;411.70;;;380.85;;
67503;SDS011;54351;49.108;1.502;2022-11-25T19:53:50;387.35;;;356.50;;
67503;SDS011;54351;49.108;1.502;2022-11-25T19:56:17;433.92;;;400.70;;
67503;SDS011;54351;49.108;1.502;2022-11-25T19:58:43;374.02;;;345.48;;
67503;SDS011;54351;49.108;1.502;2022-11-25T20:01:10;352.13;;;325.27;;
67503;SDS011;54351;49.108;1.502;2022-11-25T20:03:38;383.95;;;354.08;;
67503;SDS011;54351;49.108;1.502;2022-11-25T20:06:04;355.80;;;328.75;;
67503;SDS011;54351;49.108;1.502;2022-11-25T20:08:42;356.80;;;329.83;;
67503;SDS011;54351;49.108;1.502;2022-11-25T20:11:34;490.00;;;452.05;;
67503;SDS011;54351;49.108;1.502;2022-11-25T20:14:35;286.83;;;266.10;;
67503;SDS011;54351;49.108;1.502;2022-11-25T20:17:27;237.07;;;220.50;;
67503;SDS011;54351;49.108;1.502;2022-11-25T20:31:54;122.97;;;113.72;;
67503;SDS011;54351;49.108;1.502;2022-11-25T20:34:44;93.75;;;86.25;;
67503;SDS011;54351;49.108;1.502;2022-11-25T20:40:43;74.75;;;69.32;;
67503;SDS011;54351;49.108;1.502;2022-11-25T20:48:58;115.05;;;106.93;;
67503;SDS011;54351;49.108;1.502;2022-11-25T20:51:41;259.25;;;242.43;;
67503;SDS011;54351;49.108;1.502;2022-11-25T20:54:08;176.02;;;165.30;;
67503;SDS011;54351;49.108;1.502;2022-11-25T22:58:33;50.35;;;46.08;;
67503;SDS011;54351;49.108;1.502;2022-11-25T23:01:00;56.75;;;52.45;;
67503;SDS011;54351;49.108;1.502;2022-11-25T23:03:27;58.80;;;54.35;;
67503;SDS011;54351;49.108;1.502;2022-11-25T23:05:53;67.13;;;62.83;;
67503;SDS011;54351;49.108;1.502;2022-11-25T23:08:22;61.33;;;57.22;;
67503;SDS011;54351;49.108;1.502;2022-11-25T23:10:48;58.95;;;54.55;;
